createdAt,value
2022-09-15T00:00:29.495Z,84.58
2022-09-15T00:02:56.234Z,84.16
2022-09-15T00:05:23.007Z,84.19
2022-09-15T00:07:49.570Z,84.29
2022-09-15T00:10:17.411Z,84.05
2022-09-15T00:12:44.434Z,84.53
2022-09-15T00:15:14.810Z,82.94
2022-09-15T00:17:43.044Z,82.23
2022-09-15T00:20:10.538Z,83.30
2022-09-15T00:22:37.407Z,83.55
2022-09-15T00:25:04.238Z,84.26
2022-09-15T00:27:32.124Z,84.25
2022-09-15T00:29:58.784Z,84.37
2022-09-15T00:32:25.679Z,84.42
2022-09-15T00:34:53.486Z,84.24
2022-09-15T00:37:20.908Z,84.55
2022-09-15T00:39:47.749Z,84.13
2022-09-15T00:42:19.656Z,84.04
2022-09-15T00:44:50.062Z,83.27
2022-09-15T00:47:20.017Z,83.56
2022-09-15T00:49:52.473Z,83.69
2022-09-15T00:52:31.818Z,84.08
2022-09-15T00:55:32.095Z,83.75
2022-09-15T00:58:04.046Z,83.74
2022-09-15T01:00:30.672Z,84.01
2022-09-15T01:02:57.553Z,83.93
2022-09-15T01:05:30.115Z,84.38
2022-09-15T01:08:01.943Z,84.11
2022-09-15T01:10:34.712Z,84.29
2022-09-15T01:13:07.153Z,84.23
2022-09-15T01:15:36.537Z,83.83
2022-09-15T01:18:22.021Z,84.08
2022-09-15T01:21:06.347Z,84.59
2022-09-15T01:23:35.861Z,83.78
2022-09-15T01:26:18.738Z,83.71
2022-09-15T01:28:45.267Z,83.44
2022-09-15T01:31:23.428Z,83.79
2022-09-15T01:34:16.690Z,83.72
2022-09-15T01:36:54.251Z,83.29
2022-09-15T01:39:27.196Z,83.17
2022-09-15T01:42:07.818Z,82.91
2022-09-15T01:44:40.396Z,83.09
2022-09-15T01:47:09.950Z,83.67
2022-09-15T01:49:44.465Z,84.18
2022-09-15T01:52:11.337Z,84.24
2022-09-15T01:54:48.797Z,83.22
2022-09-15T01:57:22.723Z,82.97
2022-09-15T01:59:50.413Z,82.92
2022-09-15T02:02:23.994Z,83.34
2022-09-15T02:04:55.399Z,83.30
2022-09-15T02:07:45.403Z,83.92
2022-09-15T02:10:34.559Z,83.36
2022-09-15T02:13:16.899Z,82.78
2022-09-15T02:15:48.414Z,82.74
2022-09-15T02:18:23.804Z,82.93
2022-09-15T02:20:54.861Z,83.00
2022-09-15T02:23:27.611Z,83.21
2022-09-15T02:25:59.841Z,82.80
2022-09-15T02:28:30.074Z,83.43
2022-09-15T02:30:59.212Z,83.15
2022-09-15T02:33:32.366Z,83.60
2022-09-15T02:35:59.812Z,83.31
2022-09-15T02:38:29.577Z,83.51
2022-09-15T02:40:57.022Z,83.56
2022-09-15T02:43:23.651Z,83.11
2022-09-15T02:45:50.764Z,82.91
2022-09-15T02:48:17.672Z,83.30
2022-09-15T02:50:44.242Z,83.17
2022-09-15T02:53:10.741Z,83.42
2022-09-15T02:55:37.378Z,83.21
2022-09-15T02:58:04.182Z,83.13
2022-09-15T03:00:31.157Z,83.04
2022-09-15T03:02:58.333Z,82.81
2022-09-15T03:05:28.730Z,83.32
2022-09-15T03:07:56.125Z,82.48
2022-09-15T03:10:24.476Z,83.08
2022-09-15T03:12:53.802Z,82.71
2022-09-15T03:15:25.529Z,82.75
2022-09-15T03:17:53.465Z,82.93
2022-09-15T03:20:23.556Z,83.50
2022-09-15T03:22:50.629Z,83.17
2022-09-15T03:25:18.064Z,83.73
2022-09-15T03:27:44.972Z,82.95
2022-09-15T03:30:12.300Z,83.11
2022-09-15T03:32:38.900Z,82.97
2022-09-15T03:35:06.847Z,83.01
2022-09-15T03:37:33.835Z,83.48
2022-09-15T03:40:00.466Z,83.68
2022-09-15T03:42:27.144Z,83.60
2022-09-15T03:44:53.693Z,83.47
2022-09-15T03:47:20.400Z,83.02
2022-09-15T03:49:47.564Z,83.05
2022-09-15T03:52:14.114Z,83.10
2022-09-15T03:54:40.726Z,83.06
2022-09-15T03:57:07.646Z,83.38
2022-09-15T03:59:34.333Z,83.66
2022-09-15T04:02:00.939Z,83.75
2022-09-15T04:04:27.502Z,83.93
2022-09-15T04:06:54.089Z,83.79
2022-09-15T04:09:21.510Z,83.69
2022-09-15T04:11:48.185Z,84.15
2022-09-15T04:14:14.824Z,83.33
2022-09-15T04:16:41.557Z,83.08
2022-09-15T04:19:08.429Z,82.79
2022-09-15T04:21:35.042Z,82.67
2022-09-15T04:24:01.867Z,82.94
2022-09-15T04:26:31.363Z,82.58
2022-09-15T04:29:03.075Z,82.88
2022-09-15T04:31:31.763Z,83.08
2022-09-15T04:33:58.552Z,83.31
2022-09-15T04:36:28.236Z,83.08
2022-09-15T04:38:56.222Z,82.71
2022-09-15T04:41:24.471Z,84.30
2022-09-15T04:43:51.551Z,84.82
2022-09-15T04:46:18.557Z,84.88
2022-09-15T04:48:46.329Z,85.16
2022-09-15T04:51:15.923Z,84.95
2022-09-15T04:53:43.490Z,84.44
2022-09-15T04:56:15.836Z,85.16
2022-09-15T04:58:45.249Z,85.99
2022-09-15T05:01:14.894Z,86.01
2022-09-15T05:03:42.293Z,86.36
2022-09-15T05:06:11.310Z,86.56
2022-09-15T05:08:38.424Z,85.22
2022-09-15T05:11:08.306Z,85.13
2022-09-15T05:13:35.909Z,84.61
2022-09-15T05:16:29.453Z,84.02
2022-09-15T05:18:58.485Z,83.68
2022-09-15T05:21:26.764Z,83.17
2022-09-15T05:23:53.982Z,83.50
2022-09-15T05:26:23.582Z,83.25
2022-09-15T05:28:50.270Z,82.58
2022-09-15T05:31:23.831Z,83.01
2022-09-15T05:33:51.524Z,82.83
2022-09-15T05:36:20.280Z,82.67
2022-09-15T05:38:47.181Z,82.45
2022-09-15T05:41:16.914Z,82.96
2022-09-15T05:43:45.088Z,83.10
2022-09-15T05:46:12.535Z,83.32
2022-09-15T05:48:39.506Z,83.33
2022-09-15T05:51:06.786Z,82.85
2022-09-15T05:53:35.484Z,83.03
2022-09-15T05:56:07.638Z,83.38
2022-09-15T05:58:34.583Z,83.29
2022-09-15T06:01:07.965Z,83.01
2022-09-15T06:03:35.667Z,83.60
2022-09-15T06:06:03.851Z,83.27
2022-09-15T06:08:35.451Z,83.45
2022-09-15T06:11:07.890Z,83.76
2022-09-15T06:13:34.612Z,83.76
2022-09-15T06:16:07.223Z,84.55
2022-09-15T06:18:37.088Z,84.42
2022-09-15T06:21:05.362Z,84.71
2022-09-15T06:23:32.456Z,85.47
2022-09-15T06:26:06.867Z,84.84
2022-09-15T06:28:33.843Z,84.35
2022-09-15T06:31:00.352Z,84.23
2022-09-15T06:33:27.587Z,84.12
2022-09-15T06:35:54.428Z,84.06
2022-09-15T06:38:21.038Z,84.34
2022-09-15T06:40:58.291Z,84.83
2022-09-15T06:43:25.942Z,84.34
2022-09-15T06:45:52.482Z,84.36
2022-09-15T06:48:25.060Z,83.69
2022-09-15T06:50:55.647Z,84.29
2022-09-15T06:53:22.431Z,84.01
2022-09-15T06:55:49.072Z,84.48
2022-09-15T06:58:15.820Z,84.21
2022-09-15T07:00:43.070Z,84.35
2022-09-15T07:03:09.858Z,85.16
2022-09-15T07:05:36.608Z,84.90
2022-09-15T07:08:03.496Z,85.81
2022-09-15T07:10:29.970Z,85.24
2022-09-15T07:12:56.706Z,84.49
2022-09-15T07:15:25.902Z,84.95
2022-09-15T07:17:52.498Z,85.36
2022-09-15T07:20:18.987Z,86.13
2022-09-15T07:22:45.582Z,86.02
2022-09-15T07:25:12.084Z,85.40
2022-09-15T07:27:38.753Z,82.66
2022-09-15T07:30:08.545Z,84.47
2022-09-15T07:32:35.280Z,83.48
2022-09-15T07:35:02.313Z,83.56
2022-09-15T07:37:28.935Z,83.81
2022-09-15T07:39:55.533Z,83.76
2022-09-15T07:42:22.128Z,84.02
2022-09-15T07:44:48.652Z,83.49
2022-09-15T07:47:15.210Z,81.79
2022-09-15T07:49:42.148Z,82.25
2022-09-15T07:52:09.168Z,83.26
2022-09-15T07:54:35.936Z,81.27
2022-09-15T07:57:02.563Z,80.42
2022-09-15T07:59:29.092Z,79.82
2022-09-15T08:01:55.679Z,80.24
2022-09-15T08:04:22.319Z,80.81
2022-09-15T08:06:49.056Z,81.31
2022-09-15T08:09:17.636Z,82.34
2022-09-15T08:11:44.384Z,82.20
2022-09-15T08:14:11.104Z,80.98
2022-09-15T08:16:39.174Z,80.00
2022-09-15T08:19:06.434Z,80.14
2022-09-15T08:21:33.030Z,81.08
2022-09-15T08:24:01.210Z,80.43
2022-09-15T08:26:29.356Z,78.97
2022-09-15T08:28:55.949Z,78.77
2022-09-15T08:31:24.303Z,79.44
2022-09-15T08:33:53.049Z,78.01
2022-09-15T08:36:20.181Z,76.95
2022-09-15T08:38:47.539Z,76.56
2022-09-15T08:41:15.887Z,76.12
2022-09-15T08:43:48.141Z,75.23
2022-09-15T08:46:22.421Z,78.70
2022-09-15T08:49:02.769Z,78.54
2022-09-15T08:51:39.825Z,77.05
2022-09-15T08:54:14.344Z,75.53
2022-09-15T08:56:43.090Z,75.05
2022-09-15T08:59:14.830Z,73.56
2022-09-15T09:01:59.937Z,74.04
2022-09-15T09:04:37.128Z,77.78
2022-09-15T09:07:18.660Z,75.17
2022-09-15T09:10:34.802Z,73.89
2022-09-15T09:13:07.338Z,73.90
2022-09-15T09:16:19.114Z,72.24
2022-09-15T09:19:11.833Z,72.10
2022-09-15T09:21:43.078Z,73.24
2022-09-15T09:24:17.177Z,73.80
2022-09-15T09:26:49.620Z,71.46
2022-09-15T09:29:18.752Z,71.37
2022-09-15T09:31:50.845Z,71.51
2022-09-15T09:34:29.181Z,69.96
2022-09-15T09:37:00.935Z,73.22
2022-09-15T09:39:28.272Z,72.66
2022-09-15T09:41:55.425Z,69.70
2022-09-15T09:44:31.759Z,70.18
2022-09-15T09:47:00.434Z,69.98
2022-09-15T09:49:49.512Z,71.47
2022-09-15T09:52:41.098Z,72.64
2022-09-15T09:55:23.478Z,71.75
2022-09-15T09:57:50.804Z,71.84
2022-09-15T10:00:38.382Z,72.46
2022-09-15T10:03:26.221Z,69.26
2022-09-15T10:06:04.475Z,70.44
2022-09-15T10:08:31.657Z,68.65
2022-09-15T10:11:04.811Z,68.86
2022-09-15T10:13:32.871Z,69.64
2022-09-15T10:16:02.146Z,70.23
2022-09-15T10:18:32.189Z,68.82
2022-09-15T10:21:00.485Z,68.81
2022-09-15T10:23:32.602Z,69.85
2022-09-15T10:26:21.955Z,68.87
2022-09-15T10:29:14.633Z,70.01
2022-09-15T10:31:42.278Z,64.90
2022-09-15T10:34:30.614Z,66.37
2022-09-15T10:37:14.363Z,68.84
2022-09-15T10:39:52.227Z,66.11
2022-09-15T10:42:33.877Z,68.51
2022-09-15T10:45:07.967Z,65.70
2022-09-15T10:47:43.529Z,64.39
2022-09-15T10:50:45.086Z,64.54
2022-09-15T10:53:57.221Z,62.32
2022-09-15T10:56:29.593Z,64.59
2022-09-15T10:59:32.153Z,64.99
2022-09-15T11:02:11.065Z,65.81
2022-09-15T11:04:46.771Z,63.99
2022-09-15T11:07:31.837Z,63.40
2022-09-15T11:10:52.845Z,64.02
2022-09-15T11:13:50.438Z,63.68
2022-09-15T11:16:41.476Z,64.22
2022-09-15T11:19:19.048Z,64.26
2022-09-15T11:21:49.891Z,62.82
2022-09-15T11:24:46.850Z,61.22
2022-09-15T11:27:22.726Z,61.36
2022-09-15T11:29:52.301Z,63.08
2022-09-15T11:32:27.781Z,62.07
2022-09-15T11:35:31.869Z,58.64
2022-09-15T11:38:29.343Z,60.85
2022-09-15T11:41:22.813Z,60.62
2022-09-15T11:44:19.778Z,59.33
2022-09-15T11:47:05.027Z,61.91
2022-09-15T11:49:39.243Z,63.07
2022-09-15T11:52:33.617Z,60.87
2022-09-15T11:55:07.212Z,58.79
2022-09-15T11:57:44.471Z,60.62
2022-09-15T12:00:14.572Z,59.48
2022-09-15T12:02:51.496Z,58.54
2022-09-15T12:05:24.022Z,57.61
2022-09-15T12:08:02.566Z,58.29
2022-09-15T12:10:39.697Z,56.69
2022-09-15T12:13:07.772Z,58.16
2022-09-15T12:15:34.536Z,57.51
2022-09-15T12:18:06.647Z,58.53
2022-09-15T12:20:53.946Z,59.24
2022-09-15T12:23:34.728Z,59.15
2022-09-15T12:26:14.681Z,57.19
2022-09-15T12:28:47.363Z,58.89
2022-09-15T12:31:23.364Z,58.68
2022-09-15T12:33:57.395Z,58.15
2022-09-15T12:36:39.283Z,58.20
2022-09-15T12:39:30.409Z,57.51
2022-09-15T12:41:59.762Z,58.01
2022-09-15T12:44:30.856Z,57.67
2022-09-15T12:46:58.946Z,58.34
2022-09-15T12:49:33.689Z,59.10
2022-09-15T12:52:03.212Z,59.27
2022-09-15T12:54:33.083Z,58.61
2022-09-15T12:57:00.516Z,57.37
2022-09-15T12:59:28.415Z,56.84
2022-09-15T13:01:56.250Z,57.73
2022-09-15T13:04:28.405Z,57.56
2022-09-15T13:07:16.491Z,57.70
2022-09-15T13:10:15.540Z,58.27
2022-09-15T13:12:51.882Z,54.98
2022-09-15T13:15:20.410Z,56.21
2022-09-15T13:17:47.649Z,54.70
2022-09-15T13:20:23.997Z,54.03
2022-09-15T13:22:56.296Z,54.97
2022-09-15T13:25:28.268Z,53.26
2022-09-15T13:28:03.056Z,51.06
2022-09-15T13:30:53.787Z,52.79
2022-09-15T13:39:47.926Z,49.74
2022-09-15T13:42:20.458Z,51.55
2022-09-15T13:45:07.246Z,50.73
2022-09-15T13:47:42.682Z,51.04
2022-09-15T13:50:25.705Z,50.63
2022-09-15T13:53:02.134Z,50.16
2022-09-15T13:55:38.597Z,50.55
2022-09-15T14:01:07.758Z,48.47
2022-09-15T14:03:53.881Z,49.35
2022-09-15T14:06:22.870Z,49.84
2022-09-15T14:08:55.706Z,48.83
2022-09-15T14:11:28.285Z,49.79
2022-09-15T14:13:56.728Z,49.57
2022-09-15T14:16:30.984Z,51.37
2022-09-15T14:18:58.618Z,51.12
2022-09-15T14:21:27.607Z,52.00
2022-09-15T14:23:58.649Z,51.18
2022-09-15T14:26:28.909Z,50.36
2022-09-15T14:29:03.156Z,48.13
2022-09-15T14:31:41.027Z,48.09
2022-09-15T14:34:21.658Z,49.78
2022-09-15T14:37:17.504Z,50.28
2022-09-15T14:39:57.396Z,50.60
2022-09-15T14:42:44.664Z,49.83
2022-09-15T14:48:07.106Z,48.75
2022-09-15T14:50:34.184Z,50.33
2022-09-15T14:53:07.834Z,49.58
2022-09-15T14:55:43.518Z,49.66
2022-09-15T14:58:32.383Z,49.00
2022-09-15T15:01:24.034Z,49.41
2022-09-15T15:04:10.382Z,49.68
2022-09-15T15:06:57.640Z,50.25
2022-09-15T15:09:33.102Z,50.29
2022-09-15T15:12:06.941Z,50.86
2022-09-15T15:14:35.437Z,49.04
2022-09-15T15:17:08.080Z,50.05
2022-09-15T15:19:39.477Z,49.91
2022-09-15T15:22:14.825Z,51.28
2022-09-15T15:24:45.068Z,50.48
2022-09-15T15:27:41.098Z,50.44
2022-09-15T15:30:32.682Z,50.45
2022-09-15T15:33:28.525Z,50.83
2022-09-15T15:36:02.664Z,50.92
2022-09-15T15:38:33.097Z,50.31
2022-09-15T15:41:02.317Z,50.49
2022-09-15T15:43:29.295Z,50.15
2022-09-15T15:46:01.031Z,50.75
2022-09-15T15:48:29.530Z,50.89
2022-09-15T15:50:58.660Z,50.94
2022-09-15T15:53:25.841Z,50.41
2022-09-15T15:55:55.056Z,50.67
2022-09-15T15:58:22.576Z,50.91
2022-09-15T16:00:55.003Z,50.77
2022-09-15T16:03:23.132Z,50.66
2022-09-15T16:05:57.201Z,50.96
2022-09-15T16:08:31.217Z,50.95
2022-09-15T16:11:00.516Z,50.45
2022-09-15T16:13:27.498Z,50.55
2022-09-15T16:15:57.990Z,50.22
2022-09-15T16:18:25.075Z,50.62
2022-09-15T16:20:54.267Z,49.69
2022-09-15T16:23:22.787Z,49.75
2022-09-15T16:26:00.374Z,49.49
2022-09-15T16:28:28.881Z,49.08
2022-09-15T16:30:56.781Z,48.67
2022-09-15T16:33:25.038Z,48.17
2022-09-15T16:36:06.763Z,48.80
2022-09-15T16:38:34.969Z,49.52
2022-09-15T16:41:02.901Z,49.47
2022-09-15T16:43:29.549Z,50.95
2022-09-15T16:45:56.390Z,53.06
2022-09-15T16:48:23.200Z,53.25
2022-09-15T16:51:16.821Z,54.07
2022-09-15T16:53:39.371Z,56.07
2022-09-15T16:56:07.534Z,57.23
2022-09-15T16:58:34.243Z,57.47
2022-09-15T17:01:00.915Z,58.65
2022-09-15T17:03:29.098Z,60.13
2022-09-15T17:05:58.769Z,61.09
2022-09-15T17:08:29.572Z,62.05
2022-09-15T17:10:58.247Z,61.59
2022-09-15T17:13:29.509Z,61.40
2022-09-15T17:15:58.012Z,61.72
2022-09-15T17:18:25.057Z,61.38
2022-09-15T17:20:52.088Z,61.11
2022-09-15T17:23:31.687Z,61.31
2022-09-15T17:26:01.150Z,61.67
2022-09-15T17:28:30.057Z,61.85
2022-09-15T17:31:02.454Z,61.85
2022-09-15T17:33:30.999Z,63.00
2022-09-15T17:35:58.112Z,62.09
2022-09-15T17:38:25.084Z,61.90
2022-09-15T17:40:53.031Z,62.30
2022-09-15T17:43:28.877Z,61.97
2022-09-15T17:45:56.374Z,62.02
2022-09-15T17:48:23.252Z,61.82
2022-09-15T17:50:50.410Z,61.65
2022-09-15T17:53:26.836Z,61.55
2022-09-15T17:55:55.424Z,61.98
2022-09-15T17:58:22.933Z,61.70
2022-09-15T18:00:50.472Z,61.60
2022-09-15T18:03:27.746Z,61.65
2022-09-15T18:05:56.399Z,61.77
2022-09-15T18:08:23.023Z,61.67
2022-09-15T18:10:50.694Z,61.99
2022-09-15T18:13:27.343Z,62.17
2022-09-15T18:15:54.969Z,61.91
2022-09-15T18:18:24.502Z,62.35
2022-09-15T18:20:53.114Z,62.18
2022-09-15T18:23:22.144Z,62.92
2022-09-15T18:25:50.070Z,63.01
2022-09-15T18:28:18.132Z,62.92
2022-09-15T18:30:49.899Z,63.19
2022-09-15T18:33:20.159Z,63.01
2022-09-15T18:35:49.316Z,62.50
2022-09-15T18:38:16.299Z,61.82
2022-09-15T18:40:48.994Z,61.46
2022-09-15T18:43:16.637Z,61.97
2022-09-15T18:45:43.403Z,61.93
2022-09-15T18:48:12.741Z,61.42
2022-09-15T18:50:40.788Z,61.50
2022-09-15T18:53:07.701Z,61.16
2022-09-15T18:55:34.593Z,60.94
2022-09-15T18:58:02.393Z,61.16
2022-09-15T19:00:29.744Z,61.29
2022-09-15T19:03:01.032Z,61.29
2022-09-15T19:05:29.485Z,61.73
2022-09-15T19:07:56.856Z,62.00
2022-09-15T19:10:24.570Z,62.13
2022-09-15T19:12:51.107Z,62.61
2022-09-15T19:15:17.993Z,62.66
2022-09-15T19:17:45.069Z,62.42
2022-09-15T19:20:15.016Z,62.62
2022-09-15T19:22:42.550Z,62.22
2022-09-15T19:25:11.322Z,61.61
2022-09-15T19:27:38.673Z,62.15
2022-09-15T19:30:07.617Z,61.51
2022-09-15T19:32:34.567Z,61.90
2022-09-15T19:35:01.271Z,62.47
2022-09-15T19:37:30.629Z,62.77
2022-09-15T19:39:57.351Z,62.48
2022-09-15T19:42:23.970Z,63.13
2022-09-15T19:44:50.570Z,62.45
2022-09-15T19:47:17.133Z,62.07
2022-09-15T19:49:43.750Z,61.52
2022-09-15T19:52:10.531Z,61.48
2022-09-15T19:54:37.129Z,61.18
2022-09-15T19:57:04.177Z,61.25
2022-09-15T19:59:31.834Z,61.47
2022-09-15T20:02:00.163Z,61.68
2022-09-15T20:04:28.100Z,61.73
2022-09-15T20:06:54.998Z,61.42
2022-09-15T20:09:21.688Z,62.46
2022-09-15T20:11:48.236Z,61.99
2022-09-15T20:14:14.883Z,61.83
2022-09-15T20:16:41.470Z,61.84
2022-09-15T20:19:08.235Z,61.29
2022-09-15T20:21:53.242Z,61.58
2022-09-15T20:24:21.004Z,61.17
2022-09-15T20:26:47.922Z,61.43
2022-09-15T20:29:14.491Z,61.74
2022-09-15T20:31:41.393Z,61.96
2022-09-15T20:34:08.492Z,62.29
2022-09-15T20:36:38.700Z,62.48
2022-09-15T20:39:09.399Z,62.75
2022-09-15T20:41:36.935Z,62.73
2022-09-15T20:44:03.734Z,63.51
2022-09-15T20:46:31.327Z,62.87
2022-09-15T20:48:57.954Z,62.20
2022-09-15T20:51:27.925Z,62.90
2022-09-15T20:53:56.322Z,62.93
2022-09-15T20:56:25.578Z,62.29
2022-09-15T20:58:58.553Z,62.47
2022-09-15T21:01:37.607Z,62.85
2022-09-15T21:04:05.477Z,62.78
2022-09-15T21:06:32.829Z,62.42
2022-09-15T21:08:59.512Z,62.79
2022-09-15T21:11:28.033Z,62.98
2022-09-15T21:13:55.519Z,63.19
2022-09-15T21:16:24.578Z,62.80
2022-09-15T21:18:52.501Z,62.96
2022-09-15T21:21:24.638Z,62.94
2022-09-15T21:23:56.512Z,62.75
2022-09-15T21:26:28.177Z,62.01
2022-09-15T21:28:56.019Z,62.44
2022-09-15T21:31:31.273Z,62.52
2022-09-15T21:33:58.327Z,62.51
2022-09-15T21:36:29.929Z,62.26
2022-09-15T21:38:58.927Z,62.14
2022-09-15T21:41:29.058Z,62.14
2022-09-15T21:43:58.018Z,62.25
2022-09-15T21:46:26.888Z,62.79
2022-09-15T21:48:55.571Z,62.64
2022-09-15T21:51:25.063Z,62.92
2022-09-15T21:53:56.730Z,62.72
2022-09-15T21:56:27.292Z,62.88
2022-09-15T21:58:54.576Z,63.38
2022-09-15T22:01:28.103Z,63.09
2022-09-15T22:04:00.114Z,62.61
2022-09-15T22:06:31.785Z,62.77
2022-09-15T22:09:01.070Z,62.47
2022-09-15T22:11:27.709Z,62.49
2022-09-15T22:13:54.381Z,63.42
2022-09-15T22:16:23.913Z,61.78
2022-09-15T22:18:51.705Z,61.90
2022-09-15T22:21:31.424Z,62.32
2022-09-15T22:23:59.582Z,61.36
2022-09-15T22:26:29.428Z,61.84
2022-09-15T22:28:58.136Z,61.83
2022-09-15T22:31:25.977Z,61.67
2022-09-15T22:33:52.962Z,61.78
2022-09-15T22:36:29.675Z,61.93
2022-09-15T22:39:07.699Z,61.20
2022-09-15T22:41:37.311Z,62.52
2022-09-15T22:44:04.428Z,62.43
2022-09-15T22:46:31.551Z,62.65
2022-09-15T22:48:58.351Z,62.39
2022-09-15T22:51:25.156Z,62.20
2022-09-15T22:53:56.951Z,61.98
2022-09-15T22:56:25.926Z,62.15
2022-09-15T22:58:53.114Z,61.61
2022-09-15T23:01:22.666Z,61.77
2022-09-15T23:04:00.449Z,61.45
2022-09-15T23:06:31.341Z,61.79
2022-09-15T23:09:00.701Z,61.84
2022-09-15T23:11:28.915Z,62.51
2022-09-15T23:13:56.261Z,62.05
2022-09-15T23:16:24.275Z,62.01
2022-09-15T23:18:51.514Z,61.52
2022-09-15T23:21:18.341Z,62.03
2022-09-15T23:23:47.601Z,61.68
2022-09-15T23:26:17.294Z,61.86
2022-09-15T23:28:44.003Z,62.35
2022-09-15T23:31:12.868Z,62.67
2022-09-15T23:33:40.008Z,62.44
2022-09-15T23:36:08.920Z,62.69
2022-09-15T23:38:39.778Z,62.63
2022-09-15T23:41:07.620Z,62.67
2022-09-15T23:43:34.666Z,62.25
2022-09-15T23:46:01.698Z,62.58
2022-09-15T23:48:28.640Z,62.61
2022-09-15T23:50:55.277Z,62.71
2022-09-15T23:53:21.848Z,63.55
2022-09-15T23:55:48.622Z,63.45
2022-09-15T23:58:15.126Z,63.78
